createdAt,value
2018-03-08T00:01:31.049Z,34.00
2018-03-08T00:03:58.072Z,31.20
2018-03-08T00:06:24.391Z,34.37
2018-03-08T00:08:51.445Z,33.03
2018-03-08T00:11:17.751Z,33.60
2018-03-08T00:13:44.121Z,32.77
2018-03-08T00:16:11.203Z,36.17
2018-03-08T00:18:37.509Z,33.70
2018-03-08T00:21:03.865Z,33.10
2018-03-08T00:23:30.161Z,31.53
2018-03-08T00:25:57.209Z,33.40
2018-03-08T00:28:24.263Z,34.00
2018-03-08T00:30:51.303Z,32.20
2018-03-08T00:33:18.347Z,34.47
2018-03-08T00:35:45.405Z,34.00
2018-03-08T00:38:12.461Z,33.90
2018-03-08T00:40:38.766Z,35.47
2018-03-08T00:43:05.080Z,36.10
2018-03-08T00:45:31.381Z,38.60
2018-03-08T00:47:57.703Z,37.30
2018-03-08T00:50:23.993Z,34.67
2018-03-08T00:52:51.054Z,35.00
2018-03-08T00:55:18.096Z,36.47
2018-03-08T00:57:45.133Z,35.93
2018-03-08T01:00:12.196Z,33.40
2018-03-08T01:02:39.245Z,34.57
2018-03-08T01:05:05.556Z,32.83
2018-03-08T01:07:32.620Z,33.17
2018-03-08T01:09:58.978Z,34.50
2018-03-08T01:12:25.304Z,36.70
2018-03-08T01:14:51.613Z,36.37
2018-03-08T01:17:18.642Z,37.30
2018-03-08T01:19:45.709Z,36.57
2018-03-08T01:22:12.023Z,35.40
2018-03-08T01:24:39.136Z,35.30
2018-03-08T01:27:05.437Z,35.10
2018-03-08T01:29:31.777Z,38.00
2018-03-08T01:31:58.089Z,35.10
2018-03-08T01:34:24.376Z,36.67
2018-03-08T01:36:50.680Z,34.67
2018-03-08T01:39:16.986Z,32.87
2018-03-08T01:41:43.292Z,33.67
2018-03-08T01:44:10.341Z,33.77
2018-03-08T01:46:36.642Z,31.80
2018-03-08T01:49:02.973Z,32.90
2018-03-08T01:51:29.264Z,36.67
2018-03-08T01:53:55.583Z,33.03
2018-03-08T01:56:21.920Z,31.93
2018-03-08T01:58:48.236Z,33.77
2018-03-08T02:01:14.551Z,33.77
2018-03-08T02:03:40.911Z,34.40
2018-03-08T02:06:08.083Z,33.47
2018-03-08T02:08:34.409Z,34.27
2018-03-08T02:11:00.749Z,33.40
2018-03-08T02:13:27.079Z,33.40
2018-03-08T02:15:53.383Z,31.80
2018-03-08T02:18:19.718Z,32.47
2018-03-08T02:20:46.026Z,32.87
2018-03-08T02:23:12.325Z,33.00
2018-03-08T02:25:39.359Z,34.83
2018-03-08T02:28:05.649Z,34.57
2018-03-08T02:30:31.958Z,33.00
2018-03-08T02:32:58.337Z,32.30
2018-03-08T02:35:24.674Z,32.73
2018-03-08T02:37:50.974Z,34.17
2018-03-08T02:40:17.286Z,32.30
2018-03-08T02:42:43.614Z,33.80
2018-03-08T02:45:09.941Z,32.43
2018-03-08T02:47:36.260Z,32.90
2018-03-08T02:50:03.333Z,32.97
2018-03-08T02:52:29.624Z,31.70
2018-03-08T02:54:56.689Z,31.20
2018-03-08T02:57:22.969Z,33.80
2018-03-08T02:59:49.298Z,32.17
2018-03-08T03:02:15.588Z,32.17
2018-03-08T03:04:41.919Z,30.07
2018-03-08T03:07:08.239Z,31.20
2018-03-08T03:09:34.544Z,32.43
2018-03-08T03:12:01.623Z,31.60
2018-03-08T03:14:27.927Z,31.07
2018-03-08T03:16:54.985Z,31.60
2018-03-08T03:19:22.016Z,30.23
2018-03-08T03:21:48.317Z,30.70
2018-03-08T03:24:14.618Z,29.20
2018-03-08T03:26:40.940Z,30.43
2018-03-08T03:29:07.236Z,29.17
2018-03-08T03:31:34.307Z,29.80
2018-03-08T03:34:00.612Z,30.10
2018-03-08T03:36:27.676Z,30.30
2018-03-08T03:38:54.700Z,29.40
2018-03-08T03:41:21.016Z,29.10
2018-03-08T03:43:47.300Z,28.80
2018-03-08T03:46:13.634Z,28.60
2018-03-08T03:48:39.928Z,29.30
2018-03-08T03:51:06.981Z,28.93
2018-03-08T03:53:34.057Z,28.70
2018-03-08T03:56:00.343Z,28.50
2018-03-08T03:58:26.628Z,26.50
2018-03-08T04:00:52.944Z,27.70
2018-03-08T04:03:19.208Z,28.77
2018-03-08T04:05:45.507Z,27.27
2018-03-08T04:08:11.821Z,28.20
2018-03-08T04:10:38.113Z,29.17
2018-03-08T04:13:04.425Z,29.03
2018-03-08T04:15:30.732Z,27.10
2018-03-08T04:17:57.067Z,29.40
2018-03-08T04:20:23.363Z,28.03
2018-03-08T04:22:49.675Z,26.87
2018-03-08T04:25:15.979Z,28.83
2018-03-08T04:27:42.279Z,30.57
2018-03-08T04:30:08.571Z,28.10
2018-03-08T04:32:35.608Z,29.33
2018-03-08T04:35:01.893Z,29.23
2018-03-08T04:37:28.210Z,30.23
2018-03-08T04:39:54.504Z,28.47
2018-03-08T04:42:20.793Z,27.97
2018-03-08T04:44:47.093Z,28.60
2018-03-08T04:47:13.392Z,28.73
2018-03-08T04:49:39.686Z,29.80
2018-03-08T04:52:05.985Z,29.17
2018-03-08T04:54:32.284Z,28.00
2018-03-08T04:56:58.614Z,26.77
2018-03-08T04:59:25.658Z,29.83
2018-03-08T05:01:52.030Z,27.30
2018-03-08T05:04:18.572Z,30.33
2018-03-08T05:06:44.868Z,28.40
2018-03-08T05:09:11.883Z,28.10
2018-03-08T05:11:38.165Z,30.00
2018-03-08T05:14:04.492Z,31.40
2018-03-08T05:16:30.809Z,30.60
2018-03-08T05:18:57.862Z,30.90
2018-03-08T05:21:24.164Z,31.30
2018-03-08T05:23:50.475Z,30.30
2018-03-08T05:26:16.765Z,31.37
2018-03-08T05:28:43.482Z,31.37
2018-03-08T05:31:09.789Z,32.10
2018-03-08T05:33:36.852Z,31.47
2018-03-08T05:36:03.886Z,31.53
2018-03-08T05:38:30.939Z,31.97
2018-03-08T05:40:57.259Z,31.30
2018-03-08T05:43:23.552Z,33.90
2018-03-08T05:45:49.847Z,31.10
2018-03-08T05:48:16.172Z,36.03
2018-03-08T05:50:42.488Z,34.20
2018-03-08T05:53:08.786Z,35.20
2018-03-08T05:55:35.142Z,34.60
2018-03-08T05:58:01.451Z,34.33
2018-03-08T06:00:27.753Z,35.77
2018-03-08T06:02:54.083Z,36.10
2018-03-08T06:05:20.396Z,34.70
2018-03-08T06:07:46.694Z,34.57
2018-03-08T06:10:12.984Z,35.17
2018-03-08T06:12:39.309Z,35.97
2018-03-08T06:15:05.666Z,34.00
2018-03-08T06:17:31.957Z,35.83
2018-03-08T06:19:58.250Z,34.77
2018-03-08T06:22:25.288Z,36.10
2018-03-08T06:24:52.360Z,34.17
2018-03-08T06:27:18.657Z,34.87
2018-03-08T06:29:45.719Z,34.47
2018-03-08T06:32:12.017Z,33.33
2018-03-08T06:34:38.346Z,35.50
2018-03-08T06:37:04.639Z,34.80
2018-03-08T06:39:30.964Z,35.70
2018-03-08T06:41:57.268Z,35.43
2018-03-08T06:44:24.317Z,33.87
2018-03-08T06:46:51.610Z,34.57
2018-03-08T06:49:17.917Z,35.50
2018-03-08T06:51:44.232Z,33.53
2018-03-08T06:54:11.277Z,34.80
2018-03-08T06:56:38.326Z,37.40
2018-03-08T06:59:05.374Z,38.50
2018-03-08T07:01:32.422Z,37.50
2018-03-08T07:03:59.463Z,37.87
2018-03-08T07:06:26.504Z,37.37
2018-03-08T07:08:53.571Z,38.83
2018-03-08T07:11:20.612Z,37.10
2018-03-08T07:13:47.638Z,39.80
2018-03-08T07:16:13.958Z,40.17
2018-03-08T07:18:40.256Z,43.27
2018-03-08T07:21:06.560Z,40.57
2018-03-08T07:23:32.864Z,39.83
2018-03-08T07:25:59.892Z,41.23
2018-03-08T07:28:27.740Z,42.90
2018-03-08T07:30:54.131Z,41.27
2018-03-08T07:33:21.152Z,43.77
2018-03-08T07:35:47.455Z,41.80
2018-03-08T07:38:13.742Z,42.47
2018-03-08T07:40:40.782Z,40.80
2018-03-08T07:43:07.821Z,45.00
2018-03-08T07:45:34.865Z,43.17
2018-03-08T07:48:01.898Z,44.17
2018-03-08T07:50:28.962Z,39.80
2018-03-08T07:52:56.092Z,43.33
2018-03-08T07:55:22.428Z,43.90
2018-03-08T07:57:48.715Z,43.07
2018-03-08T08:00:15.343Z,42.00
2018-03-08T08:02:41.622Z,43.50
2018-03-08T08:05:20.192Z,45.90
2018-03-08T08:07:58.869Z,46.23
2018-03-08T08:10:25.134Z,44.67
2018-03-08T08:12:51.450Z,45.87
2018-03-08T08:15:18.476Z,48.07
2018-03-08T08:17:45.582Z,46.73
2018-03-08T08:20:11.883Z,48.90
2018-03-08T08:22:38.215Z,47.40
2018-03-08T08:25:04.531Z,49.03
2018-03-08T08:27:31.582Z,47.23
2018-03-08T08:29:57.894Z,46.67
2018-03-08T08:32:24.957Z,44.83
2018-03-08T08:34:51.261Z,46.57
2018-03-08T08:37:17.551Z,46.07
2018-03-08T08:39:43.854Z,46.87
2018-03-08T08:42:10.192Z,45.83
2018-03-08T08:44:36.505Z,46.80
2018-03-08T08:47:03.575Z,49.57
2018-03-08T08:49:29.869Z,46.00
2018-03-08T08:51:56.946Z,45.97
2018-03-08T08:54:23.245Z,46.00
2018-03-08T08:56:50.283Z,46.00
2018-03-08T08:59:16.624Z,41.27
2018-03-08T09:01:43.673Z,40.60
2018-03-08T09:04:10.730Z,37.13
2018-03-08T09:06:37.775Z,33.50
2018-03-08T09:09:04.822Z,33.90
2018-03-08T09:11:31.157Z,30.80
2018-03-08T09:13:57.440Z,28.40
2018-03-08T09:16:23.768Z,26.87
2018-03-08T09:18:50.067Z,24.97
2018-03-08T09:21:16.375Z,27.10
2018-03-08T09:23:43.471Z,38.13
2018-03-08T09:26:09.788Z,24.53
2018-03-08T09:28:36.095Z,25.73
2018-03-08T09:31:02.417Z,27.30
2018-03-08T09:33:29.463Z,26.90
2018-03-08T09:35:55.787Z,26.33
2018-03-08T09:38:22.804Z,30.10
2018-03-08T09:40:49.103Z,32.37
2018-03-08T09:43:15.405Z,32.20
2018-03-08T09:45:41.701Z,36.67
2018-03-08T09:48:07.999Z,41.30
2018-03-08T09:50:34.287Z,42.80
2018-03-08T09:53:01.359Z,44.97
2018-03-08T09:55:27.675Z,42.40
2018-03-08T09:57:53.997Z,41.03
2018-03-08T10:00:20.272Z,38.50
2018-03-08T10:02:46.616Z,39.47
2018-03-08T10:05:12.916Z,36.60
2018-03-08T10:07:39.212Z,31.60
2018-03-08T10:10:06.264Z,32.23
2018-03-08T10:12:32.572Z,28.67
2018-03-08T10:14:59.637Z,30.17
2018-03-08T10:17:26.660Z,29.30
2018-03-08T10:19:52.962Z,28.63
2018-03-08T10:22:19.248Z,28.70
2018-03-08T10:24:45.560Z,29.40
2018-03-08T10:27:12.606Z,29.70
2018-03-08T10:29:39.669Z,29.30
2018-03-08T10:32:06.694Z,28.60
2018-03-08T10:34:33.739Z,27.70
2018-03-08T10:37:00.797Z,28.47
2018-03-08T10:41:54.819Z,28.43
2018-03-08T10:44:21.147Z,30.03
2018-03-08T10:46:47.473Z,31.00
2018-03-08T10:49:13.794Z,28.53
2018-03-08T10:51:40.092Z,29.00
2018-03-08T10:54:06.447Z,28.80
2018-03-08T10:56:33.484Z,27.83
2018-03-08T10:59:00.525Z,29.00
2018-03-08T11:01:27.604Z,26.73
2018-03-08T11:03:54.905Z,27.80
2018-03-08T11:06:27.477Z,27.47
2018-03-08T11:08:53.803Z,27.23
2018-03-08T11:11:20.104Z,28.10
2018-03-08T11:13:46.462Z,26.60
2018-03-08T11:16:12.788Z,27.57
2018-03-08T11:18:39.089Z,29.07
2018-03-08T11:21:05.440Z,29.90
2018-03-08T11:23:31.743Z,28.70
2018-03-08T11:25:58.037Z,26.30
2018-03-08T11:28:24.326Z,27.10
2018-03-08T11:30:50.644Z,23.63
2018-03-08T11:33:16.950Z,22.50
2018-03-08T11:35:44.021Z,22.50
2018-03-08T11:38:10.351Z,24.37
2018-03-08T11:40:36.684Z,23.60
2018-03-08T11:43:02.979Z,23.57
2018-03-08T11:45:30.043Z,26.10
2018-03-08T11:47:57.068Z,25.57
2018-03-08T11:50:23.359Z,27.47
2018-03-08T11:52:49.664Z,27.90
2018-03-08T11:55:16.024Z,27.30
2018-03-08T11:57:42.326Z,27.97
2018-03-08T12:00:08.626Z,28.83
2018-03-08T12:02:34.940Z,28.53
2018-03-08T12:05:01.997Z,27.70
2018-03-08T12:07:29.082Z,29.03
2018-03-08T12:09:55.374Z,28.50
2018-03-08T12:12:22.442Z,30.30
2018-03-08T12:14:48.781Z,28.77
2018-03-08T12:17:15.100Z,28.90
2018-03-08T12:19:42.133Z,28.30
2018-03-08T12:22:09.261Z,29.60
2018-03-08T12:24:35.587Z,31.83
2018-03-08T12:27:01.900Z,31.60
2018-03-08T12:29:28.238Z,28.33
2018-03-08T12:31:54.559Z,30.13
2018-03-08T12:34:20.850Z,29.53
2018-03-08T12:36:47.888Z,29.10
2018-03-08T12:39:14.922Z,28.47
2018-03-08T12:41:42.004Z,28.63
2018-03-08T12:44:08.312Z,27.03
2018-03-08T12:46:35.364Z,26.90
2018-03-08T12:49:01.689Z,27.93
2018-03-08T12:51:28.721Z,29.33
2018-03-08T12:53:55.753Z,27.30
2018-03-08T12:56:22.100Z,27.50
2018-03-08T12:58:49.161Z,28.93
2018-03-08T13:01:16.208Z,30.30
2018-03-08T13:03:43.300Z,29.10
2018-03-08T13:06:09.610Z,28.37
2018-03-08T13:08:35.908Z,29.43
2018-03-08T13:11:02.198Z,28.37
2018-03-08T13:13:28.505Z,29.30
2018-03-08T13:15:54.821Z,29.00
2018-03-08T13:18:21.470Z,27.40
2018-03-08T13:20:47.758Z,29.00
2018-03-08T13:23:14.799Z,29.10
2018-03-08T13:25:41.855Z,28.10
2018-03-08T13:28:08.928Z,27.77
2018-03-08T13:30:35.260Z,27.67
2018-03-08T13:33:01.586Z,26.87
2018-03-08T13:35:27.882Z,28.03
2018-03-08T13:37:54.186Z,26.93
2018-03-08T13:40:21.270Z,25.23
2018-03-08T13:42:48.338Z,25.40
2018-03-08T13:45:14.673Z,23.30
2018-03-08T13:47:40.995Z,21.87
2018-03-08T13:50:07.326Z,21.83
2018-03-08T13:52:33.707Z,22.90
2018-03-08T13:54:59.957Z,22.20
2018-03-08T13:57:26.241Z,22.53
2018-03-08T13:59:52.561Z,20.70
2018-03-08T14:02:18.860Z,21.27
2018-03-08T14:04:45.920Z,20.30
2018-03-08T14:07:12.980Z,20.77
2018-03-08T14:09:39.270Z,20.83
2018-03-08T14:12:05.578Z,19.13
2018-03-08T14:14:31.900Z,19.17
2018-03-08T14:16:58.201Z,19.43
2018-03-08T14:19:24.498Z,19.23
2018-03-08T14:21:51.527Z,20.00
2018-03-08T14:24:17.838Z,19.53
2018-03-08T14:26:44.125Z,18.63
2018-03-08T14:29:11.148Z,18.50
2018-03-08T14:31:37.435Z,17.90
2018-03-08T14:34:03.748Z,18.50
2018-03-08T14:36:30.026Z,18.30
2018-03-08T14:38:56.333Z,15.27
2018-03-08T14:41:22.621Z,15.43
2018-03-08T14:43:49.666Z,15.30
2018-03-08T14:46:16.748Z,15.40
2018-03-08T14:48:43.030Z,16.37
2018-03-08T14:51:10.093Z,14.93
2018-03-08T14:53:37.123Z,14.77
2018-03-08T14:56:04.158Z,14.77
2018-03-08T14:58:30.436Z,15.73
2018-03-08T15:00:56.744Z,15.03
2018-03-08T15:03:23.807Z,14.57
2018-03-08T15:05:50.096Z,14.40
2018-03-08T15:08:17.864Z,13.27
2018-03-08T15:10:44.954Z,12.97
2018-03-08T15:13:11.315Z,12.50
2018-03-08T15:15:37.665Z,12.60
2018-03-08T15:18:04.005Z,13.40
2018-03-08T15:20:30.388Z,12.70
2018-03-08T15:22:56.769Z,13.57
2018-03-08T15:25:23.864Z,12.77
2018-03-08T15:27:51.063Z,12.00
2018-03-08T15:30:18.157Z,11.53
2018-03-08T15:32:44.490Z,12.13
2018-03-08T15:35:12.327Z,11.50
2018-03-08T15:37:39.427Z,11.80
2018-03-08T15:40:06.599Z,12.40
2018-03-08T15:42:34.007Z,11.83
2018-03-08T15:45:00.337Z,10.90
2018-03-08T15:47:26.758Z,12.43
2018-03-08T15:49:53.146Z,11.00
2018-03-08T15:52:20.249Z,11.70
2018-03-08T15:54:46.585Z,10.53
2018-03-08T15:57:12.905Z,12.30
2018-03-08T15:59:39.220Z,11.20
2018-03-08T16:02:05.522Z,11.80
2018-03-08T16:04:32.595Z,11.70
2018-03-08T16:10:39.686Z,12.17
2018-03-08T16:13:06.004Z,10.17
2018-03-08T16:15:32.289Z,10.93
2018-03-08T16:17:58.609Z,10.80
2018-03-08T16:20:24.904Z,11.47
2018-03-08T16:22:51.269Z,10.03
2018-03-08T16:25:18.020Z,9.77
2018-03-08T16:27:44.429Z,10.93
2018-03-08T16:30:10.856Z,10.17
2018-03-08T16:32:37.891Z,10.80
2018-03-08T16:35:04.968Z,10.33
2018-03-08T16:37:31.290Z,9.70
2018-03-08T16:39:57.606Z,10.37
2018-03-08T16:42:24.691Z,9.83
2018-03-08T16:44:51.051Z,9.97
2018-03-08T16:47:17.376Z,9.93
2018-03-08T16:49:44.508Z,10.47
2018-03-08T16:52:10.845Z,10.40
2018-03-08T16:54:37.161Z,10.13
2018-03-08T16:57:03.483Z,10.10
2018-03-08T16:59:29.811Z,9.50
2018-03-08T17:01:56.857Z,8.90
2018-03-08T17:04:23.172Z,9.37
2018-03-08T17:06:49.485Z,9.17
2018-03-08T17:09:16.633Z,9.20
2018-03-08T17:11:43.597Z,9.10
2018-03-08T17:14:09.932Z,7.97
2018-03-08T17:16:36.210Z,8.20
2018-03-08T17:19:02.526Z,8.53
2018-03-08T17:21:29.334Z,8.00
2018-03-08T17:23:55.704Z,7.10
2018-03-08T17:26:22.029Z,7.93
2018-03-08T17:28:48.341Z,7.50
2018-03-08T17:31:14.652Z,7.40
2018-03-08T17:33:40.956Z,7.97
2018-03-08T17:36:08.048Z,7.73
2018-03-08T17:38:34.386Z,7.10
2018-03-08T17:41:00.718Z,7.40
2018-03-08T17:43:27.044Z,7.30
2018-03-08T17:45:53.350Z,7.97
2018-03-08T17:48:19.654Z,7.10
2018-03-08T17:50:46.704Z,7.83
2018-03-08T17:53:13.763Z,8.47
2018-03-08T17:55:40.837Z,8.00
2018-03-08T17:58:07.146Z,7.73
2018-03-08T18:00:34.220Z,7.60
2018-03-08T18:03:00.528Z,7.20
2018-03-08T18:05:26.892Z,7.67
2018-03-08T18:07:53.199Z,7.97
2018-03-08T18:10:19.522Z,8.80
2018-03-08T18:12:45.886Z,8.37
2018-03-08T18:15:12.196Z,8.77
2018-03-08T18:17:38.489Z,8.40
2018-03-08T18:20:05.562Z,8.00
2018-03-08T18:22:31.906Z,8.77
2018-03-08T18:24:58.239Z,8.57
2018-03-08T18:27:24.572Z,9.13
2018-03-08T18:29:50.929Z,8.40
2018-03-08T18:32:17.212Z,8.50
2018-03-08T18:34:43.513Z,9.00
2018-03-08T18:37:10.120Z,8.50
2018-03-08T18:39:36.709Z,8.80
2018-03-08T18:42:03.065Z,9.50
2018-03-08T18:44:29.346Z,8.70
2018-03-08T18:46:56.568Z,8.93
2018-03-08T18:49:22.872Z,8.60
2018-03-08T18:51:49.173Z,9.60
2018-03-08T18:54:16.229Z,10.50
2018-03-08T18:56:43.323Z,9.27
2018-03-08T18:59:09.694Z,9.73
2018-03-08T19:01:36.030Z,9.20
2018-03-08T19:04:03.062Z,10.47
2018-03-08T19:06:29.413Z,9.23
2018-03-08T19:08:55.769Z,8.87
2018-03-08T19:11:22.056Z,9.13
2018-03-08T19:13:49.119Z,8.73
2018-03-08T19:16:15.417Z,9.57
2018-03-08T19:18:41.714Z,8.90
2018-03-08T19:21:08.024Z,9.70
2018-03-08T19:23:34.305Z,10.03
2018-03-08T19:26:01.370Z,11.53
2018-03-08T19:28:28.417Z,10.33
2018-03-08T19:30:55.466Z,9.30
2018-03-08T19:33:22.575Z,10.83
2018-03-08T19:35:48.861Z,9.97
2018-03-08T19:38:15.174Z,8.97
2018-03-08T19:40:42.211Z,10.00
2018-03-08T19:43:09.266Z,9.43
2018-03-08T19:45:36.313Z,10.37
2018-03-08T19:48:03.629Z,9.73
2018-03-08T19:50:30.115Z,10.90
2018-03-08T19:52:57.187Z,10.10
2018-03-08T19:55:24.245Z,9.73
2018-03-08T19:57:50.610Z,9.63
2018-03-08T20:00:16.936Z,10.63
2018-03-08T20:02:43.279Z,9.57
2018-03-08T20:05:10.325Z,10.10
2018-03-08T20:07:36.935Z,9.83
2018-03-08T20:10:04.054Z,9.43
2018-03-08T20:12:30.368Z,9.37
2018-03-08T20:14:56.767Z,8.97
2018-03-08T20:17:23.083Z,9.37
2018-03-08T20:19:50.146Z,8.77
2018-03-08T20:22:16.535Z,9.70
2018-03-08T20:24:42.852Z,9.60
2018-03-08T20:27:09.153Z,9.80
2018-03-08T20:29:36.247Z,10.23
2018-03-08T20:32:02.575Z,10.40
2018-03-08T20:34:28.902Z,9.70
2018-03-08T20:36:55.227Z,10.60
2018-03-08T20:39:21.533Z,9.90
2018-03-08T20:41:48.583Z,10.23
2018-03-08T20:44:16.349Z,11.43
2018-03-08T20:46:43.421Z,12.03
2018-03-08T20:49:09.722Z,9.67
2018-03-08T20:51:36.030Z,9.00
2018-03-08T20:54:02.333Z,8.97
2018-03-08T20:56:28.699Z,7.10
2018-03-08T20:58:55.400Z,4.80
2018-03-08T21:01:22.653Z,3.97
2018-03-08T21:03:49.187Z,3.63
2018-03-08T21:06:15.547Z,3.63
2018-03-08T21:08:41.847Z,3.10
2018-03-08T21:11:08.182Z,3.20
2018-03-08T21:13:34.488Z,3.27
2018-03-08T21:16:00.772Z,3.50
2018-03-08T21:18:27.078Z,3.10
2018-03-08T21:20:53.481Z,3.70
2018-03-08T21:23:19.806Z,4.10
2018-03-08T21:25:46.119Z,3.80
2018-03-08T21:28:13.149Z,3.50
2018-03-08T21:30:40.185Z,3.60
2018-03-08T21:33:06.474Z,7.53
2018-03-08T21:35:32.877Z,4.27
2018-03-08T21:37:59.173Z,3.70
2018-03-08T21:40:26.250Z,2.00
2018-03-08T21:42:52.532Z,2.40
2018-03-08T21:45:18.860Z,2.77
2018-03-08T21:47:45.191Z,2.50
2018-03-08T21:50:11.517Z,2.50
2018-03-08T21:52:37.829Z,2.63
2018-03-08T21:55:04.131Z,2.93
2018-03-08T21:57:31.159Z,3.03
2018-03-08T21:59:58.197Z,2.80
2018-03-08T22:02:25.248Z,3.00
2018-03-08T22:04:52.301Z,3.10
2018-03-08T22:07:19.340Z,3.60
2018-03-08T22:09:46.397Z,3.07
2018-03-08T22:12:13.428Z,3.13
2018-03-08T22:14:39.772Z,3.80
2018-03-08T22:17:06.808Z,3.37
2018-03-08T22:19:33.088Z,4.63
2018-03-08T22:21:59.393Z,4.00
2018-03-08T22:24:26.425Z,4.10
2018-03-08T22:26:52.753Z,3.60
2018-03-08T22:29:19.032Z,3.77
2018-03-08T22:31:45.481Z,3.17
2018-03-08T22:34:12.443Z,2.93
2018-03-08T22:36:38.734Z,3.03
2018-03-08T22:39:05.026Z,3.50
2018-03-08T22:41:32.066Z,3.10
2018-03-08T22:43:59.106Z,2.70
2018-03-08T22:46:26.891Z,3.40
2018-03-08T22:48:53.892Z,4.47
2018-03-08T22:51:20.340Z,4.23
2018-03-08T22:53:46.661Z,5.43
2018-03-08T22:56:12.948Z,4.60
2018-03-08T22:58:39.245Z,5.20
2018-03-08T23:01:06.297Z,5.63
2018-03-08T23:03:32.586Z,6.00
2018-03-08T23:05:58.917Z,4.60
2018-03-08T23:08:25.245Z,5.40
2018-03-08T23:10:51.562Z,5.30
2018-03-08T23:13:17.875Z,7.47
2018-03-08T23:15:44.169Z,6.07
2018-03-08T23:18:11.237Z,6.73
2018-03-08T23:20:37.540Z,6.60
2018-03-08T23:23:03.882Z,6.50
2018-03-08T23:25:31.019Z,7.00
2018-03-08T23:27:57.337Z,7.03
2018-03-08T23:30:24.396Z,7.40
2018-03-08T23:32:58.723Z,7.63
2018-03-08T23:35:25.778Z,7.30
2018-03-08T23:37:52.122Z,8.60
2018-03-08T23:40:19.152Z,9.73
2018-03-08T23:42:46.249Z,10.03
2018-03-08T23:45:12.697Z,9.30
2018-03-08T23:47:39.125Z,10.33
2018-03-08T23:50:05.433Z,11.07
2018-03-08T23:52:31.739Z,11.20
2018-03-08T23:54:58.770Z,11.10
2018-03-08T23:57:25.842Z,12.43
2018-03-08T23:59:52.120Z,12.13
